createdAt,value
2018-01-21T00:01:32.438Z,8.80
2018-01-21T00:04:01.075Z,9.38
2018-01-21T00:06:28.826Z,10.15
2018-01-21T00:08:56.969Z,9.52
2018-01-21T00:11:26.637Z,8.68
2018-01-21T00:13:55.205Z,9.10
2018-01-21T00:16:26.161Z,9.90
2018-01-21T00:18:56.224Z,10.15
2018-01-21T00:21:25.760Z,10.10
2018-01-21T00:23:54.797Z,10.02
2018-01-21T00:26:26.371Z,8.77
2018-01-21T00:28:55.474Z,10.02
2018-01-21T00:31:23.917Z,10.50
2018-01-21T00:33:55.866Z,10.15
2018-01-21T00:36:26.168Z,9.32
2018-01-21T00:38:56.914Z,9.32
2018-01-21T00:41:27.229Z,10.10
2018-01-21T00:43:58.971Z,9.25
2018-01-21T00:46:30.654Z,9.20
2018-01-21T00:49:03.266Z,10.20
2018-01-21T00:51:31.283Z,9.60
2018-01-21T00:53:58.906Z,8.95
2018-01-21T00:56:26.546Z,8.05
2018-01-21T00:58:54.276Z,9.38
2018-01-21T01:01:22.937Z,7.50
2018-01-21T01:03:50.967Z,8.43
2018-01-21T01:06:20.194Z,8.70
2018-01-21T01:09:03.020Z,9.15
2018-01-21T01:11:33.388Z,8.40
2018-01-21T01:14:02.215Z,7.97
2018-01-21T01:16:31.456Z,8.10
2018-01-21T01:19:01.580Z,8.23
2018-01-21T01:21:31.612Z,8.93
2018-01-21T01:24:03.390Z,8.63
2018-01-21T01:26:33.164Z,9.75
2018-01-21T01:29:02.338Z,9.00
2018-01-21T01:31:31.353Z,9.05
2018-01-21T01:34:04.902Z,9.52
2018-01-21T01:36:36.415Z,10.82
2018-01-21T01:39:05.526Z,11.38
2018-01-21T01:41:34.871Z,11.77
2018-01-21T01:44:03.482Z,12.80
2018-01-21T01:46:33.556Z,12.77
2018-01-21T01:49:03.550Z,12.00
2018-01-21T01:51:35.699Z,11.27
2018-01-21T01:54:04.404Z,11.00
2018-01-21T01:56:45.089Z,12.90
2018-01-21T01:59:13.354Z,11.43
2018-01-21T02:01:43.564Z,11.45
2018-01-21T02:04:13.451Z,13.48
2018-01-21T02:06:45.651Z,13.38
2018-01-21T02:09:19.035Z,14.50
2018-01-21T02:11:47.466Z,14.40
2018-01-21T02:14:18.840Z,14.32
2018-01-21T02:19:24.154Z,14.93
2018-01-21T02:21:53.248Z,13.10
2018-01-21T02:24:22.750Z,14.27
2018-01-21T02:26:55.653Z,14.43
2018-01-21T02:29:26.359Z,15.57
2018-01-21T02:31:56.242Z,15.80
2018-01-21T02:34:25.726Z,16.77
2018-01-21T02:36:55.051Z,14.68
2018-01-21T02:39:25.600Z,13.73
2018-01-21T02:41:56.852Z,14.50
2018-01-21T02:44:25.624Z,14.35
2018-01-21T02:46:55.816Z,13.93
2018-01-21T02:49:24.970Z,13.40
2018-01-21T02:51:53.790Z,14.40
2018-01-21T02:54:26.640Z,13.10
2018-01-21T02:56:56.356Z,12.80
2018-01-21T02:59:27.511Z,11.57
2018-01-21T03:01:56.924Z,14.00
2018-01-21T03:04:27.212Z,12.20
2018-01-21T03:06:56.350Z,12.90
2018-01-21T03:09:25.749Z,13.27
2018-01-21T03:11:56.448Z,15.50
2018-01-21T03:14:25.933Z,15.27
2018-01-21T03:16:54.772Z,14.45
2018-01-21T03:19:24.708Z,14.63
2018-01-21T03:21:53.181Z,16.02
2018-01-21T03:24:23.735Z,17.20
2018-01-21T03:26:53.133Z,20.05
2018-01-21T03:29:20.886Z,17.87
2018-01-21T03:31:48.680Z,17.05
2018-01-21T03:34:16.337Z,17.70
2018-01-21T03:36:44.832Z,17.40
2018-01-21T03:39:12.605Z,14.35
2018-01-21T03:41:40.293Z,15.95
2018-01-21T03:44:07.998Z,17.17
2018-01-21T03:46:35.792Z,19.55
2018-01-21T03:49:03.409Z,20.00
2018-01-21T03:51:31.046Z,21.10
2018-01-21T03:53:58.759Z,21.30
2018-01-21T03:56:27.167Z,19.17
2018-01-21T03:58:54.785Z,19.12
2018-01-21T04:01:22.586Z,18.58
2018-01-21T04:03:50.195Z,17.25
2018-01-21T04:06:18.070Z,17.70
2018-01-21T04:08:45.824Z,17.58
2018-01-21T04:11:13.397Z,20.77
2018-01-21T04:13:41.933Z,20.12
2018-01-21T04:16:09.672Z,20.62
2018-01-21T04:18:37.281Z,17.95
2018-01-21T04:21:05.053Z,19.70
2018-01-21T04:23:33.125Z,20.30
2018-01-21T04:26:00.821Z,20.08
2018-01-21T04:28:28.420Z,20.80
2018-01-21T04:30:56.138Z,22.25
2018-01-21T04:33:24.128Z,22.55
2018-01-21T04:35:52.140Z,20.80
2018-01-21T04:38:23.794Z,18.10
2018-01-21T04:40:51.636Z,17.95
2018-01-21T04:43:19.414Z,18.83
2018-01-21T04:45:47.648Z,23.42
2018-01-21T04:48:15.287Z,20.67
2018-01-21T04:50:44.100Z,20.37
2018-01-21T04:53:16.743Z,21.05
2018-01-21T04:55:50.508Z,23.90
2018-01-21T04:58:18.124Z,20.62
2018-01-21T05:00:48.869Z,21.67
2018-01-21T05:03:21.893Z,20.90
2018-01-21T05:05:49.797Z,20.80
2018-01-21T05:08:17.456Z,22.52
2018-01-21T05:10:45.058Z,20.12
2018-01-21T05:13:12.787Z,21.00
2018-01-21T05:15:40.713Z,21.08
2018-01-21T05:18:08.393Z,19.73
2018-01-21T05:20:36.172Z,20.95
2018-01-21T05:23:03.808Z,22.15
2018-01-21T05:25:31.405Z,20.00
2018-01-21T05:27:59.156Z,22.58
2018-01-21T05:30:26.920Z,20.60
2018-01-21T05:32:56.949Z,21.12
2018-01-21T05:35:24.606Z,19.60
2018-01-21T05:37:52.400Z,20.15
2018-01-21T05:40:20.054Z,19.85
2018-01-21T05:42:47.758Z,21.25
2018-01-21T05:45:15.476Z,21.80
2018-01-21T05:47:43.074Z,17.75
2018-01-21T05:50:10.706Z,19.67
2018-01-21T05:52:38.414Z,20.98
2018-01-21T05:55:06.652Z,18.23
2018-01-21T05:57:34.590Z,22.37
2018-01-21T06:00:04.382Z,22.25
2018-01-21T06:02:32.493Z,25.17
2018-01-21T06:05:00.106Z,28.48
2018-01-21T06:07:27.825Z,27.17
2018-01-21T06:09:55.456Z,26.75
2018-01-21T06:12:23.052Z,27.37
2018-01-21T06:14:50.821Z,32.58
2018-01-21T06:17:28.533Z,29.12
2018-01-21T06:19:56.329Z,29.25
2018-01-21T06:22:24.233Z,27.90
2018-01-21T06:24:52.049Z,21.52
2018-01-21T06:27:19.852Z,20.75
2018-01-21T06:29:47.586Z,19.80
2018-01-21T06:32:15.387Z,20.30
2018-01-21T06:34:43.218Z,17.12
2018-01-21T06:37:10.911Z,17.52
2018-01-21T06:39:38.736Z,20.52
2018-01-21T06:42:06.388Z,21.85
2018-01-21T06:44:33.992Z,20.88
2018-01-21T06:47:02.247Z,18.00
2018-01-21T06:49:30.740Z,18.23
2018-01-21T06:51:58.421Z,16.10
2018-01-21T06:54:26.172Z,15.98
2018-01-21T06:56:53.820Z,15.73
2018-01-21T06:59:21.505Z,16.25
2018-01-21T07:01:49.383Z,18.12
2018-01-21T07:04:16.997Z,18.90
2018-01-21T07:06:44.635Z,19.90
2018-01-21T07:09:12.701Z,20.77
2018-01-21T07:11:40.672Z,21.25
2018-01-21T07:14:08.442Z,19.23
2018-01-21T07:16:36.257Z,22.25
2018-01-21T07:19:03.940Z,18.65
2018-01-21T07:21:31.713Z,19.67
2018-01-21T07:23:59.536Z,21.25
2018-01-21T07:26:27.449Z,21.75
2018-01-21T07:28:55.628Z,22.42
2018-01-21T07:31:24.195Z,21.48
2018-01-21T07:33:51.815Z,21.15
2018-01-21T07:36:19.568Z,20.75
2018-01-21T07:38:47.286Z,18.58
2018-01-21T07:41:15.581Z,16.73
2018-01-21T07:43:43.337Z,15.07
2018-01-21T07:46:11.129Z,15.73
2018-01-21T07:48:40.404Z,11.57
2018-01-21T07:51:08.048Z,12.20
2018-01-21T07:53:35.767Z,12.15
2018-01-21T07:56:03.571Z,14.52
2018-01-21T07:58:32.370Z,13.32
2018-01-21T08:01:00.292Z,11.10
2018-01-21T08:03:28.860Z,13.95
2018-01-21T08:05:56.704Z,17.30
2018-01-21T08:08:24.580Z,18.00
2018-01-21T08:10:52.417Z,27.27
2018-01-21T08:14:08.885Z,27.77
2018-01-21T08:16:36.661Z,21.00
2018-01-21T08:19:04.376Z,22.45
2018-01-21T08:21:32.008Z,19.37
2018-01-21T08:23:59.827Z,20.00
2018-01-21T08:26:28.359Z,19.55
2018-01-21T08:28:56.318Z,19.70
2018-01-21T08:31:24.104Z,20.55
2018-01-21T08:33:58.237Z,24.25
2018-01-21T08:36:31.707Z,19.58
2018-01-21T13:11:37.412Z,13.80
2018-01-21T13:16:45.812Z,14.85
2018-01-21T13:19:16.836Z,16.05
2018-01-21T13:22:01.953Z,17.12
2018-01-21T13:24:45.911Z,17.12
2018-01-21T13:27:21.040Z,18.27
2018-01-21T13:29:56.928Z,20.02
2018-01-21T13:35:14.858Z,16.52
2018-01-21T13:37:42.619Z,15.00
2018-01-21T13:44:03.571Z,16.15
2018-01-21T13:46:31.324Z,15.05
2018-01-21T13:48:58.892Z,15.20
2018-01-21T13:51:26.755Z,13.65
2018-01-21T13:53:54.561Z,15.73
2018-01-21T13:56:22.355Z,17.27
2018-01-21T13:58:50.500Z,17.98
2018-01-21T14:01:23.422Z,21.58
2018-01-21T14:03:54.289Z,22.90
2018-01-21T14:06:22.970Z,20.85
2018-01-21T14:08:53.484Z,21.75
2018-01-21T14:11:29.163Z,20.62
2018-01-21T14:14:06.841Z,21.15
2018-01-21T14:16:40.797Z,21.98
2018-01-21T14:19:11.014Z,21.50
2018-01-21T14:21:41.507Z,16.92
2018-01-21T14:24:13.318Z,18.33
2018-01-21T14:26:44.320Z,18.55
2018-01-21T14:29:15.024Z,19.58
2018-01-21T14:31:46.719Z,18.92
2018-01-21T14:36:52.940Z,20.98
2018-01-21T14:39:24.914Z,25.02
2018-01-21T14:41:56.138Z,20.05
2018-01-21T14:44:30.752Z,18.80
2018-01-21T14:47:06.435Z,18.10
2018-01-21T14:49:37.181Z,18.12
2018-01-21T14:52:08.946Z,20.88
2018-01-21T14:54:39.836Z,20.85
2018-01-21T14:57:11.225Z,18.50
2018-01-21T14:59:42.703Z,18.45
2018-01-21T15:02:14.553Z,20.05
2018-01-21T15:04:45.550Z,20.25
2018-01-21T15:07:15.272Z,16.60
2018-01-21T15:09:48.689Z,11.75
2018-01-21T15:12:20.033Z,16.98
2018-01-21T15:17:26.818Z,18.80
2018-01-21T15:19:57.390Z,18.70
2018-01-21T15:22:36.047Z,17.20
2018-01-21T15:25:04.923Z,20.92
2018-01-21T15:27:35.591Z,16.42
2018-01-21T15:30:12.787Z,22.02
2018-01-21T15:32:43.928Z,17.35
2018-01-21T15:35:12.499Z,14.25
2018-01-21T15:37:40.953Z,14.80
2018-01-21T15:40:09.176Z,15.38
2018-01-21T15:42:37.741Z,17.67
2018-01-21T15:45:05.718Z,17.37
2018-01-21T15:47:33.920Z,19.33
2018-01-21T15:50:15.310Z,17.17
2018-01-21T15:52:50.224Z,12.43
2018-01-21T15:55:19.517Z,17.35
2018-01-21T15:57:52.721Z,16.62
2018-01-21T16:00:21.421Z,17.12
2018-01-21T16:02:50.289Z,14.27
2018-01-21T16:05:18.082Z,14.30
2018-01-21T16:07:48.913Z,13.60
2018-01-21T16:10:16.763Z,14.38
2018-01-21T16:12:45.102Z,13.60
2018-01-21T16:15:13.692Z,14.15
2018-01-21T16:17:41.286Z,17.83
2018-01-21T16:20:08.917Z,14.43
2018-01-21T16:22:37.180Z,16.37
2018-01-21T16:25:04.828Z,18.33
2018-01-21T16:27:33.448Z,20.42
2018-01-21T16:30:02.349Z,20.10
2018-01-21T16:32:31.313Z,15.95
2018-01-21T16:35:00.316Z,13.95
2018-01-21T16:37:42.411Z,15.90
2018-01-21T16:40:10.680Z,17.05
2018-01-21T16:42:39.431Z,17.50
2018-01-21T16:45:07.450Z,17.48
2018-01-21T16:47:39.082Z,17.75
2018-01-21T16:50:08.739Z,18.98
2018-01-21T16:52:38.346Z,17.87
2018-01-21T16:55:06.404Z,20.65
2018-01-21T16:57:35.158Z,23.45
2018-01-21T17:00:10.500Z,22.20
2018-01-21T17:02:38.920Z,17.80
2018-01-21T17:05:07.825Z,20.12
2018-01-21T17:07:38.062Z,21.05
2018-01-21T17:10:12.125Z,21.37
2018-01-21T17:12:40.214Z,22.20
2018-01-21T17:15:08.393Z,19.67
2018-01-21T17:17:37.147Z,16.35
2018-01-21T17:20:05.718Z,15.40
2018-01-21T17:22:33.648Z,16.15
2018-01-21T17:25:02.253Z,18.62
2018-01-21T17:27:30.079Z,16.73
2018-01-21T17:29:58.293Z,13.68
2018-01-21T17:32:27.149Z,15.32
2018-01-21T17:34:54.995Z,17.87
2018-01-21T17:37:22.691Z,19.37
2018-01-21T17:39:51.141Z,19.33
2018-01-21T17:42:38.286Z,19.25
2018-01-21T17:45:25.423Z,21.12
2018-01-21T17:50:54.516Z,17.00
2018-01-21T17:56:21.923Z,21.05
2018-01-21T17:58:51.568Z,22.80
2018-01-21T18:01:20.478Z,21.83
2018-01-21T18:03:49.251Z,19.02
2018-01-21T18:06:19.420Z,18.92
2018-01-21T18:08:47.717Z,18.67
2018-01-21T18:11:15.491Z,20.30
2018-01-21T18:13:44.928Z,19.62
2018-01-21T18:16:13.728Z,19.83
2018-01-21T18:18:41.545Z,20.33
2018-01-21T18:21:17.607Z,22.10
2018-01-21T18:23:48.468Z,21.55
2018-01-21T20:08:06.342Z,15.63
2018-01-21T20:10:35.736Z,19.00
2018-01-21T20:13:04.811Z,18.98
2018-01-21T20:18:43.097Z,14.60
2018-01-21T20:21:11.904Z,14.77
2018-01-21T20:23:40.788Z,13.82
2018-01-21T20:26:08.491Z,14.68
2018-01-21T20:28:36.445Z,14.95
2018-01-21T20:31:04.174Z,15.80
2018-01-21T20:33:31.734Z,16.02
2018-01-21T20:35:59.398Z,15.50
2018-01-21T20:38:27.275Z,15.25
2018-01-21T20:40:55.913Z,13.68
2018-01-21T20:43:23.534Z,13.88
2018-01-21T20:45:51.337Z,14.73
2018-01-21T20:48:19.002Z,15.70
2018-01-21T20:50:46.702Z,16.73
2018-01-21T20:53:21.148Z,15.32
2018-01-21T20:55:50.511Z,17.67
2018-01-21T20:58:18.290Z,16.35
2018-01-21T21:03:45.253Z,14.13
